Time;durP1;ratioP1;P1;durP2;ratioP2;P2;SDS_P1;SDS_P2;PMS_P1;PMS_P2;Temp;Humidity;BMP_temperature;BMP_pressure;BME280_temperature;BME280_humidity;BME280_pressure;Samples;Min_cycle;Max_cycle;Signal;HPM_P1;HPM_P2
2024/01/01 00:25:03;;;;;;;0.20;0.20;;;;;;;11.84;100.00;75068.94;6209982;23;20096;-85
2024/01/01 00:27:58;;;;;;;0.20;0.20;;;;;;;11.82;100.00;75066.53;6208486;23;19997;-86
2024/01/01 00:30:28;;;;;;;0.20;0.20;;;;;;;11.45;100.00;75023.50;6209674;23;20009;-85
2024/01/01 00:34:14;;;;;;;0.20;0.20;;;;;;;11.68;100.00;75049.81;6191258;23;20042;-84
2024/01/01 00:39:45;;;;;;;0.20;0.20;;;;;;;11.46;100.00;75027.47;6276090;22;20235;-86
2024/01/01 08:31:36;;;;;;;0.20;0.20;;;;;;;14.71;100.00;75405.34;6272263;22;20022;-87
2024/01/01 08:34:11;;;;;;;0.20;0.20;;;;;;;14.87;100.00;75425.13;6269614;22;20059;-86
2024/01/01 08:38:03;;;;;;;0.20;0.20;;;;;;;15.21;100.00;75461.88;6266682;22;20000;-86
2024/01/01 08:48:20;;;;;;;0.20;0.20;;;;;;;14.75;100.00;75404.56;6271796;22;20022;-86
2024/01/01 08:51:09;;;;;;;0.20;0.20;;;;;;;14.62;100.00;75392.97;6267756;22;20012;-86
2024/01/01 08:54:19;;;;;;;0.20;0.20;;;;;;;14.94;100.00;75427.31;6203110;23;20019;-86
2024/01/01 08:57:13;;;;;;;0.20;0.20;;;;;;;14.45;100.00;75369.81;6185431;23;20032;-86
2024/01/01 09:03:48;;;;;;;0.20;0.20;;;;;;;14.55;100.00;75386.78;6239754;23;20044;-86
2024/01/01 09:07:35;;;;;;;0.20;0.20;;;;;;;14.55;100.00;75389.56;6149692;23;20010;-86
2024/01/01 09:10:57;;;;;;;0.20;0.20;;;;;;;15.05;100.00;75440.50;6149656;23;20009;-87
2024/01/01 09:14:38;;;;;;;0.20;0.20;;;;;;;14.52;100.00;75378.22;6150582;23;20052;-87
2024/01/01 09:17:45;;;;;;;0.20;0.20;;;;;;;14.37;100.00;75360.81;6139764;23;20025;-86
2024/01/01 09:21:05;;;;;;;0.30;0.30;;;;;;;14.49;100.00;75380.19;6146268;23;20045;-85
2024/01/01 09:31:15;;;;;;;0.20;0.20;;;;;;;15.51;100.00;75494.44;6151852;23;20065;-86
2024/01/01 09:34:19;;;;;;;0.20;0.20;;;;;;;15.90;100.00;75542.81;6129466;23;20016;-85
2024/01/01 09:36:54;;;;;;;0.20;0.20;;;;;;;15.79;100.00;75532.41;6146899;23;20006;-86
2024/01/01 09:39:30;;;;;;;0.20;0.20;;;;;;;16.15;100.00;75575.59;6144437;23;20091;-85
2024/01/01 09:42:04;;;;;;;0.20;0.20;;;;;;;15.55;100.00;75498.63;6125850;23;20013;-85
2024/01/01 09:44:34;;;;;;;0.20;0.20;;;;;;;15.28;100.00;75466.88;6177768;22;20064;-87
2024/01/01 09:47:51;;;;;;;0.20;0.20;;;;;;;15.52;100.00;75492.25;6273006;22;20038;-86
2024/01/01 09:50:43;;;;;;;0.20;0.20;;;;;;;15.65;100.00;75514.03;6272517;23;20064;-86
2024/01/01 09:53:51;;;;;;;0.20;0.20;;;;;;;15.83;100.00;75537.81;6270845;23;20018;-86
2024/01/01 09:57:05;;;;;;;0.20;0.20;;;;;;;16.01;100.00;75552.59;6272343;22;20008;-87
2024/01/01 09:59:53;;;;;;;0.20;0.20;;;;;;;16.36;100.00;75597.38;6252217;23;20008;-87
2024/01/01 17:49:52;;;;;;;0.20;0.20;;;;;;;12.06;100.00;75095.25;6304128;22;20107;-87
2024/01/01 17:52:40;;;;;;;0.20;0.20;;;;;;;12.11;100.00;75100.03;6302537;22;20011;-86
2024/01/01 17:55:13;;;;;;;0.20;0.20;;;;;;;12.05;100.00;75094.06;6300563;22;20004;-87
2024/01/01 19:04:19;;;;;;;0.20;0.20;;;;;;;11.59;100.00;75039.63;6302090;22;20513;-87
2024/01/01 19:07:16;;;;;;;0.20;0.20;;;;;;;11.45;100.00;75023.50;6298385;22;19991;-87
2024/01/01 19:10:10;;;;;;;0.20;0.20;;;;;;;11.42;100.00;75016.53;6302600;22;20023;-87
2024/01/01 19:38:05;;;;;;;0.20;0.20;;;;;;;11.32;100.00;75001.81;6254189;22;20020;-88
2024/01/01 20:50:32;;;;;;;0.20;0.20;;;;;;;11.46;100.00;75024.69;6277674;22;20045;-87
2024/01/01 20:53:22;;;;;;;0.20;0.20;;;;;;;11.45;100.00;75020.72;6302956;22;20011;-87
2024/01/01 20:56:19;;;;;;;0.20;0.20;;;;;;;11.03;100.00;74973.91;6303045;22;20018;-87
2024/01/01 20:58:48;;;;;;;0.20;0.20;;;;;;;11.00;100.00;74970.31;6277812;22;20010;-87
2024/01/01 21:05:22;;;;;;;0.20;0.20;;;;;;;11.38;100.00;75011.75;6304296;22;20090;-87
2024/01/01 21:07:49;;;;;;;0.20;0.20;;;;;;;10.96;100.00;74965.50;6300959;22;20008;-87
2024/01/01 21:10:30;;;;;;;0.20;0.20;;;;;;;11.13;100.00;74985.84;6274228;22;20038;-87
2024/01/01 21:12:57;;;;;;;0.20;0.20;;;;;;;10.91;100.00;74954.59;6303388;22;20004;-88
2024/01/01 21:15:25;;;;;;;0.20;0.20;;;;;;;10.98;100.00;74968.50;6278885;22;20010;-89
2024/01/01 21:17:51;;;;;;;0.28;0.28;;;;;;;10.83;100.00;74950.59;6303196;22;19991;-89
2024/01/01 22:10:53;;;;;;;0.20;0.20;;;;;;;11.36;100.00;75007.19;6296845;22;20382;-87
2024/01/01 22:52:14;;;;;;;0.20;0.20;;;;;;;11.42;100.00;75014.38;6259477;22;20008;-85
2024/01/01 22:55:07;;;;;;;0.30;0.30;;;;;;;11.45;100.00;75020.72;6268072;23;20027;-85
2024/01/01 22:58:21;;;;;;;0.20;0.20;;;;;;;11.43;100.00;75020.50;6277583;22;20099;-85
2024/01/01 23:01:06;;;;;;;0.20;0.20;;;;;;;11.16;100.00;74989.41;6303989;22;20021;-85
2024/01/01 23:04:09;;;;;;;0.20;0.20;;;;;;;11.32;100.00;75002.41;6295048;22;20008;-85
2024/01/01 23:06:44;;;;;;;0.20;0.20;;;;;;;11.20;100.00;74993.63;6299575;22;19998;-85
2024/01/01 23:59:42;;;;;;;0.20;0.20;;;;;;;10.52;100.00;74911.38;6280872;22;20032;-85
